Airfield :







YOU CAN JOIN US ON...

 
LOGIN :

Register | Disclaimer

   EN    FR    IT 

 









Legend :    VFR   Marginal VFR   IFR   Intensive IFR   Very Intensive IFR
Visi :
Ceiling :
>= 8 km
>= 3000ft
5 to 8 km
1000 to 3000 ft
1500m to 5 km
500 to 1000 ft
800 to 1500m
200 to 500 ft
< 800m
< 200 ft
Symbols :   Thunderstorms  Fog  Heavy snow  Heavy precipitations  Wind > 20 kt






- Airport Elevation : 20 ft
- IATA code : BOS


KBOS - General Edward Lawrence Logan International

CURRENT METAR :
  • 070754Z 22007KT 10SM FEW180 BKN250 14/12 A2991 RMK AO2 SLP127 T01440122 $

EXPIRED METARs :
  • 070654Z 20007KT 10SM SCT180 BKN250 14/12 A2991 RMK AO2 SLP129 T01440122 $
  • 070554Z 18007KT 10SM FEW180 BKN250 14/13 A2992 RMK AO2 SLP131 T01390128 10178 20139 56004 $

TAF KBOS
Valid from the 07 at 06:00 until the 08 at 12:00 UTC


070522Z 0706/0812 22005KT P6SM BKN250
FM072200 26009KT P6SM SCT200
FM080200 30010G19KT P6SM SCT130
KZBW FIR / North America



MET'MAP, your aeronautical weather chart ! - Copyright ORBIFLY December 2007 - Disclaimer

ORBIFLY MET'MAP TEAM :

Programming & Development : Alexandra Zaïnal
Original concept : Baudouin d'Aumeries
Technical & hardware support : Manuel Goepfert
Assistance : Marc-Olivier Méhu




SOURCES & CREDITS :

   NOAA